Time;durP1;ratioP1;P1;durP2;ratioP2;P2;SDS_P1;SDS_P2;PMS_P1;PMS_P2;Temp;Humidity;BMP_temperature;BMP_pressure;BME280_temperature;BME280_humidity;BME280_pressure;Samples;Min_cycle;Max_cycle;Signal;HPM_P1;HPM_P2
2023/10/12 00:01:57;;;;;;;11.90;4.67;;;19.80;19.60;;;;;;5096894;28;20937;-73
2023/10/12 00:04:38;;;;;;;13.23;5.70;;;20.00;18.40;;;;;;5097605;28;20455;-72
2023/10/12 00:07:10;;;;;;;12.10;5.50;;;20.00;17.70;;;;;;5109492;28;20525;-72
2023/10/12 00:09:39;;;;;;;16.67;4.70;;;20.00;17.70;;;;;;5094745;28;20511;-72
2023/10/12 00:12:08;;;;;;;15.43;4.93;;;19.90;18.10;;;;;;5114566;28;20444;-72
2023/10/12 00:14:36;;;;;;;13.00;5.33;;;19.90;17.70;;;;;;5114526;28;20444;-72
2023/10/12 00:17:06;;;;;;;12.13;5.30;;;19.90;18.70;;;;;;5114693;28;20501;-73
2023/10/12 00:19:33;;;;;;;15.67;4.87;;;19.80;19.50;;;;;;5114590;28;20444;-72
2023/10/12 00:22:01;;;;;;;11.97;5.40;;;19.80;19.50;;;;;;5113876;28;20537;-73
2023/10/12 00:24:30;;;;;;;10.60;4.87;;;19.80;19.50;;;;;;5113918;28;21025;-72
2023/10/12 00:26:59;;;;;;;15.17;4.50;;;19.80;19.50;;;;;;5114115;28;20558;-73
2023/10/12 00:29:28;;;;;;;12.53;4.43;;;19.70;19.50;;;;;;5112347;28;20452;-73
2023/10/12 00:31:57;;;;;;;13.60;5.37;;;19.60;19.40;;;;;;5113871;28;20509;-73
2023/10/12 00:34:24;;;;;;;13.07;4.60;;;19.60;19.40;;;;;;5114044;28;20449;-73
2023/10/12 00:36:53;;;;;;;11.60;4.40;;;19.60;19.40;;;;;;5114444;28;20476;-72
2023/10/12 00:39:27;;;;;;;11.90;5.30;;;19.50;19.30;;;;;;5113980;28;20932;-72
2023/10/12 00:41:55;;;;;;;13.63;4.70;;;19.50;19.30;;;;;;5113895;28;20451;-73
2023/10/12 00:44:28;;;;;;;12.50;4.90;;;19.50;19.30;;;;;;5114049;28;20471;-72
2023/10/12 00:47:12;;;;;;;17.87;4.63;;;19.40;19.20;;;;;;5113391;28;20468;-72
2023/10/12 00:49:48;;;;;;;9.10;4.73;;;19.50;19.30;;;;;;5111917;28;20444;-72
2023/10/12 00:52:23;;;;;;;15.83;4.47;;;19.50;19.30;;;;;;5114008;28;20436;-72
2023/10/12 00:54:56;;;;;;;12.27;4.50;;;19.50;20.00;;;;;;5113819;28;20528;-72
2023/10/12 00:57:23;;;;;;;8.97;4.70;;;19.30;19.20;;;;;;5113847;28;20467;-72
2023/10/12 00:59:52;;;;;;;14.17;4.33;;;19.10;19.10;;;;;;5113939;28;20448;-72
2023/10/12 01:02:24;;;;;;;13.70;5.77;;;19.10;19.10;;;;;;5113446;28;20935;-72
2023/10/12 01:04:53;;;;;;;11.50;4.77;;;19.10;19.10;;;;;;5113770;28;20448;-72
2023/10/12 01:07:24;;;;;;;10.33;5.00;;;19.00;19.00;;;;;;5113726;28;20533;-72
2023/10/12 01:10:02;;;;;;;8.27;4.80;;;19.10;19.70;;;;;;5113474;28;20530;-72
2023/10/12 01:12:31;;;;;;;11.80;5.17;;;19.10;19.10;;;;;;5113133;28;20452;-72
2023/10/12 01:15:05;;;;;;;8.77;4.33;;;19.10;19.10;;;;;;5113712;28;20802;-72
2023/10/12 01:17:35;;;;;;;15.27;5.47;;;19.20;19.10;;;;;;5113170;28;20440;-72
2023/10/12 01:20:11;;;;;;;14.13;5.53;;;19.20;19.10;;;;;;5111646;28;20444;-72
2023/10/12 01:22:39;;;;;;;10.30;5.40;;;19.20;19.10;;;;;;5099566;28;20470;-72
2023/10/12 01:25:21;;;;;;;11.07;4.30;;;19.20;19.10;;;;;;5113109;28;20452;-72
2023/10/12 01:27:49;;;;;;;13.30;6.47;;;19.20;19.10;;;;;;5113144;28;20940;-72
2023/10/12 01:30:21;;;;;;;12.83;4.90;;;19.30;19.10;;;;;;5112982;28;20441;-72
2023/10/12 01:32:53;;;;;;;12.83;5.20;;;19.20;19.10;;;;;;5113175;28;20539;-72
2023/10/12 01:35:26;;;;;;;12.13;5.17;;;18.80;18.90;;;;;;5113114;28;20494;-73
2023/10/12 01:38:00;;;;;;;14.17;5.30;;;18.60;24.90;;;;;;5112910;28;20444;-72
2023/10/12 01:40:28;;;;;;;8.93;4.80;;;18.40;22.30;;;;;;5112781;28;20440;-73
2023/10/12 01:42:56;;;;;;;9.13;4.83;;;18.40;22.00;;;;;;5112959;28;20455;-72
2023/10/12 01:45:35;;;;;;;13.60;6.27;;;18.40;21.60;;;;;;5113209;28;20810;-72
2023/10/12 01:48:10;;;;;;;12.93;5.20;;;18.40;21.90;;;;;;5112623;28;20451;-72
2023/10/12 01:50:38;;;;;;;12.20;5.07;;;18.40;24.30;;;;;;5105748;28;20539;-72
2023/10/12 01:53:17;;;;;;;24.73;5.30;;;18.40;23.00;;;;;;5092303;28;20445;-73
2023/10/12 01:55:44;;;;;;;11.03;5.03;;;18.30;23.30;;;;;;5092435;28;20452;-72
2023/10/12 01:58:12;;;;;;;12.47;4.87;;;18.20;25.70;;;;;;5092284;28;20544;-73
2023/10/12 02:00:41;;;;;;;11.37;4.90;;;18.10;25.70;;;;;;5093398;28;20494;-73
2023/10/12 02:03:17;;;;;;;16.50;5.10;;;17.90;25.50;;;;;;5103383;28;20452;-73
2023/10/12 02:05:50;;;;;;;15.63;5.40;;;17.80;25.50;;;;;;5112843;28;20542;-73
2023/10/12 02:08:20;;;;;;;14.33;6.03;;;17.80;25.50;;;;;;5112747;28;20452;-73
2023/10/12 02:10:57;;;;;;;11.73;4.33;;;17.80;28.90;;;;;;5112074;28;20966;-73
2023/10/12 02:13:24;;;;;;;13.07;5.60;;;17.70;30.00;;;;;;5112718;28;20888;-74
2023/10/12 02:15:51;;;;;;;11.67;6.50;;;17.60;33.00;;;;;;5112600;28;21019;-73
2023/10/12 02:18:19;;;;;;;12.27;6.10;;;17.40;32.80;;;;;;5112465;28;20444;-73
2023/10/12 02:21:06;;;;;;;13.40;5.50;;;17.10;40.20;;;;;;5112254;28;20448;-75
2023/10/12 02:23:38;;;;;;;16.27;5.73;;;16.90;41.50;;;;;;5112630;28;20448;-76
2023/10/12 02:26:28;;;;;;;15.60;6.90;;;16.20;66.70;;;;;;5111315;28;20608;-76
2023/10/12 02:29:00;;;;;;;21.80;7.17;;;15.70;93.30;;;;;;5092321;28;20721;-76
2023/10/12 02:31:28;;;;;;;13.37;7.17;;;15.50;99.90;;;;;;5092126;28;20536;-76
2023/10/12 02:33:55;;;;;;;14.50;9.07;;;15.60;99.90;;;;;;5091453;28;20455;-77
2023/10/12 02:36:26;;;;;;;18.30;10.90;;;15.50;99.90;;;;;;5092053;28;20451;-76
2023/10/12 02:38:55;;;;;;;17.97;11.30;;;15.50;99.90;;;;;;5092130;28;20800;-77
2023/10/12 02:41:24;;;;;;;15.23;11.80;;;15.60;96.70;;;;;;5092266;28;20450;-76
2023/10/12 02:43:55;;;;;;;15.13;13.43;;;15.70;96.90;;;;;;5092082;28;20800;-77
2023/10/12 02:46:23;;;;;;;22.13;20.30;;;15.70;94.70;;;;;;5092111;28;20473;-76
2023/10/12 02:48:50;;;;;;;29.30;27.23;;;15.70;93.30;;;;;;5092960;28;20481;-77
2023/10/12 02:51:18;;;;;;;29.30;26.97;;;15.80;93.40;;;;;;5091854;28;20944;-76
2023/10/12 02:53:47;;;;;;;42.90;40.20;;;15.80;93.40;;;;;;5091850;28;20456;-76
2023/10/12 02:56:21;;;;;;;53.13;50.23;;;15.80;93.40;;;;;;5092152;28;20528;-77
2023/10/12 02:58:48;;;;;;;47.47;44.40;;;15.80;93.40;;;;;;5091909;28;20748;-76
2023/10/12 03:01:19;;;;;;;39.17;36.53;;;15.80;93.40;;;;;;5092167;28;20476;-76
2023/10/12 03:03:49;;;;;;;29.73;27.60;;;15.70;93.30;;;;;;5103802;28;20520;-76
2023/10/12 03:06:23;;;;;;;54.60;51.60;;;15.70;93.30;;;;;;5091682;28;20488;-76
2023/10/12 03:09:14;;;;;;;34.43;31.80;;;15.70;93.30;;;;;;5092094;28;20529;-76
2023/10/12 03:11:43;;;;;;;35.83;33.17;;;15.80;93.30;;;;;;5094999;28;20533;-76
2023/10/12 03:14:15;;;;;;;28.97;26.47;;;15.70;93.30;;;;;;5095273;28;20452;-75
2023/10/12 03:16:43;;;;;;;38.50;36.13;;;15.80;92.60;;;;;;5095277;28;20449;-75
2023/10/12 03:19:22;;;;;;;51.70;49.10;;;15.70;93.30;;;;;;5095458;28;20544;-75
2023/10/12 03:21:51;;;;;;;49.67;46.47;;;15.70;93.70;;;;;;5113275;28;20480;-75
2023/10/12 03:24:21;;;;;;;40.90;38.47;;;15.70;93.30;;;;;;5115510;28;20444;-76
2023/10/12 03:26:57;;;;;;;38.40;35.70;;;15.70;93.30;;;;;;5115441;28;20479;-76
2023/10/12 03:29:26;;;;;;;41.50;38.77;;;15.70;93.30;;;;;;5115413;28;20444;-75
2023/10/12 03:31:56;;;;;;;46.80;43.30;;;15.70;93.30;;;;;;5114947;28;20445;-76
2023/10/12 03:34:35;;;;;;;52.97;49.70;;;15.60;93.30;;;;;;5115484;28;20451;-76
2023/10/12 03:37:04;;;;;;;67.70;64.10;;;15.60;93.30;;;;;;5115398;28;20512;-76
2023/10/12 03:39:31;;;;;;;63.07;59.80;;;15.60;93.30;;;;;;5115241;28;20536;-76
2023/10/12 03:42:39;;;;;;;124.57;119.37;;;15.50;93.30;;;;;;5114844;28;20506;-76
2023/10/12 03:45:07;;;;;;;142.10;136.10;;;15.40;94.90;;;;;;5113028;28;20927;-76
2023/10/12 03:47:46;;;;;;;193.20;185.80;;;15.40;97.40;;;;;;5090462;28;20473;-76
2023/10/12 03:50:17;;;;;;;282.17;272.27;;;15.30;99.80;;;;;;5094874;28;20811;-76
2023/10/12 03:52:52;;;;;;;334.23;322.70;;;15.30;99.80;;;;;;5094209;28;20948;-76
2023/10/12 03:55:26;;;;;;;537.90;519.00;;;15.30;99.90;;;;;;5106829;28;20982;-76
2023/10/12 03:58:06;;;;;;;535.10;517.00;;;15.20;99.90;;;;;;5103958;28;20441;-76
2023/10/12 04:00:46;;;;;;;518.07;500.00;;;15.20;99.90;;;;;;5094338;28;20884;-75
2023/10/12 04:03:18;;;;;;;655.10;622.50;;;15.20;99.90;;;;;;5093688;28;20544;-76
2023/10/12 04:05:55;;;;;;;669.43;642.90;;;15.10;99.90;;;;;;5097223;28;21066;-76
2023/10/12 04:08:45;;;;;;;623.60;600.03;;;15.10;99.90;;;;;;5109225;28;20469;-75
2023/10/12 04:16:45;;;;;;;626.67;602.47;;;15.10;99.90;;;;;;5094837;28;20475;-75
2023/10/12 04:19:16;;;;;;;640.70;614.53;;;15.00;99.90;;;;;;5104153;28;20505;-75
2023/10/12 04:22:05;;;;;;;620.30;594.90;;;15.00;99.90;;;;;;5110292;28;20450;-75
2023/10/12 04:24:42;;;;;;;658.40;630.50;;;15.00;99.90;;;;;;5100928;28;20853;-75
2023/10/12 04:27:24;;;;;;;669.20;639.33;;;15.00;99.90;;;;;;5101920;28;20522;-76
2023/10/12 04:29:56;;;;;;;694.63;663.23;;;15.00;99.90;;;;;;5094880;28;20820;-76
2023/10/12 04:32:40;;;;;;;712.13;679.77;;;15.00;99.90;;;;;;5094433;28;20455;-76
2023/10/12 04:35:44;;;;;;;717.83;684.63;;;15.00;99.90;;;;;;5108734;28;20452;-75
2023/10/12 04:38:06;;;;;;;686.27;656.53;;;15.00;99.90;;;;;;5099001;28;20445;-76
2023/10/12 04:40:37;;;;;;;721.47;688.67;;;15.10;99.90;;;;;;5107927;28;20507;-75
2023/10/12 04:43:06;;;;;;;663.40;636.07;;;15.10;99.90;;;;;;5103144;28;20494;-75
2023/10/12 04:48:21;;;;;;;687.93;658.50;;;15.30;99.90;;;;;;5103430;28;20941;-76
2023/10/12 04:50:58;;;;;;;656.97;630.20;;;15.30;99.90;;;;;;5079053;28;20978;-76
2023/10/12 04:53:35;;;;;;;652.57;626.90;;;15.30;99.90;;;;;;5111625;28;20440;-76
2023/10/12 04:56:09;;;;;;;514.20;495.93;;;15.40;99.90;;;;;;5106769;28;20441;-75
2023/10/12 04:58:36;;;;;;;571.17;551.10;;;15.50;99.90;;;;;;5093411;28;20445;-75
2023/10/12 05:01:18;;;;;;;588.30;566.67;;;15.50;99.90;;;;;;5093055;28;20491;-76
2023/10/12 05:04:05;;;;;;;582.23;560.97;;;15.50;99.90;;;;;;5092957;28;20517;-76
2023/10/12 05:06:33;;;;;;;684.83;657.67;;;15.60;99.90;;;;;;5093156;28;20448;-76
2023/10/12 05:09:10;;;;;;;659.40;632.50;;;15.50;99.90;;;;;;5093319;28;20826;-76
2023/10/12 05:11:37;;;;;;;658.73;629.60;;;15.50;99.90;;;;;;5093251;28;20459;-76
2023/10/12 05:14:13;;;;;;;687.43;656.43;;;15.50;99.90;;;;;;5092928;28;21008;-76
2023/10/12 05:16:43;;;;;;;741.60;705.30;;;15.40;99.90;;;;;;5093457;28;20462;-76
2023/10/12 05:19:11;;;;;;;764.50;725.40;;;15.40;99.90;;;;;;5092894;28;20453;-75
2023/10/12 05:21:38;;;;;;;749.80;712.10;;;15.40;99.90;;;;;;5094458;28;20852;-76
2023/10/12 05:24:05;;;;;;;760.70;720.87;;;15.40;99.90;;;;;;5104089;28;20453;-76
2023/10/12 05:26:32;;;;;;;760.60;720.20;;;15.30;99.90;;;;;;5099954;28;20446;-76
2023/10/12 05:29:18;;;;;;;769.60;729.57;;;15.30;99.90;;;;;;5098896;28;21138;-76
2023/10/12 05:31:58;;;;;;;773.53;731.83;;;15.30;99.90;;;;;;5092722;28;20502;-76
2023/10/12 05:34:44;;;;;;;792.07;747.57;;;15.30;99.90;;;;;;5105704;28;20453;-76
2023/10/12 05:37:24;;;;;;;811.87;764.80;;;15.30;99.90;;;;;;5101818;28;20535;-76
2023/10/12 05:39:51;;;;;;;800.83;753.93;;;15.30;99.90;;;;;;5109560;28;20939;-76
2023/10/12 05:42:22;;;;;;;814.90;766.40;;;15.30;99.90;;;;;;5094488;28;20446;-76
2023/10/12 05:44:49;;;;;;;799.07;751.30;;;15.30;99.90;;;;;;5099357;28;21037;-76
2023/10/12 05:47:28;;;;;;;785.83;740.70;;;15.40;99.90;;;;;;5112708;28;20468;-76
2023/10/12 05:49:57;;;;;;;794.67;748.43;;;15.40;99.90;;;;;;5094992;28;20453;-76
2023/10/12 05:52:24;;;;;;;804.63;756.93;;;15.30;99.90;;;;;;5097924;28;20940;-75
2023/10/12 05:54:57;;;;;;;863.10;810.03;;;15.30;99.90;;;;;;5112412;28;20442;-76
2023/10/12 05:57:25;;;;;;;855.17;803.77;;;15.30;99.90;;;;;;5108619;28;20921;-75
2023/10/12 05:59:52;;;;;;;838.40;788.40;;;15.30;99.90;;;;;;5098014;28;20448;-76
2023/10/12 06:02:22;;;;;;;842.87;792.27;;;15.30;99.90;;;;;;5109735;28;20463;-76
2023/10/12 06:04:49;;;;;;;856.47;804.53;;;15.30;99.90;;;;;;5099892;28;20481;-76
2023/10/12 06:07:17;;;;;;;846.07;795.93;;;15.30;99.90;;;;;;5105713;28;20562;-75
2023/10/12 06:09:43;;;;;;;836.23;786.80;;;15.30;99.90;;;;;;5109079;28;20472;-75
2023/10/12 06:12:13;;;;;;;858.83;809.27;;;15.30;99.90;;;;;;5106320;28;20547;-76
2023/10/12 06:14:52;;;;;;;864.00;814.03;;;15.30;99.90;;;;;;5092210;28;20452;-76
2023/10/12 06:17:30;;;;;;;875.50;823.40;;;15.30;99.90;;;;;;5092328;28;20455;-75
2023/10/12 06:20:00;;;;;;;870.80;817.77;;;15.30;99.90;;;;;;5093184;28;20453;-76
2023/10/12 06:22:32;;;;;;;860.00;807.43;;;15.30;99.90;;;;;;5092405;28;20857;-75
2023/10/12 06:25:00;;;;;;;832.83;782.27;;;15.20;99.90;;;;;;5112537;28;20506;-75
2023/10/12 06:27:30;;;;;;;793.15;745.88;;;15.30;99.90;;;;;;5096596;28;20923;-75
2023/10/12 06:30:03;;;;;;;800.63;755.40;;;15.30;99.90;;;;;;5093533;28;20198;-75
2023/10/12 06:32:32;;;;;;;770.55;727.35;;;15.30;99.90;;;;;;5092439;28;20449;-74
2023/10/12 06:35:13;;;;;;;768.90;729.90;;;15.30;99.90;;;;;;5093264;28;20290;-74
2023/10/12 06:40:47;;;;;;;793.23;749.93;;;15.40;99.90;;;;;;5090389;28;20799;-74
2023/10/12 06:45:58;;;;;;;792.10;750.80;;;15.40;99.90;;;;;;5094285;28;20491;-74
2023/10/12 06:48:44;;;;;;;758.60;720.30;;;15.40;99.90;;;;;;5095923;28;20477;-74
2023/10/12 06:51:13;;;;;;;747.07;711.13;;;15.50;99.90;;;;;;5095788;28;20472;-73
2023/10/12 06:53:45;;;;;;;750.40;713.97;;;15.50;99.90;;;;;;5095711;28;20961;-73
2023/10/12 06:56:24;;;;;;;744.50;708.37;;;15.50;99.90;;;;;;5095959;28;20449;-73
2023/10/12 07:01:38;;;;;;;756.70;720.03;;;15.60;99.90;;;;;;5095431;28;20437;-74
2023/10/12 07:04:12;;;;;;;756.40;720.17;;;15.50;99.90;;;;;;5095900;28;20437;-73
2023/10/12 07:06:40;;;;;;;715.40;683.43;;;15.60;99.90;;;;;;5095780;28;20453;-73
2023/10/12 07:09:07;;;;;;;691.83;661.33;;;15.60;99.90;;;;;;5095818;28;20933;-73
2023/10/12 07:11:39;;;;;;;689.83;659.53;;;15.70;99.90;;;;;;5095432;28;20452;-73
2023/10/12 07:14:06;;;;;;;626.40;600.00;;;15.70;99.90;;;;;;5095316;28;20460;-74
2023/10/12 07:16:52;;;;;;;642.20;613.93;;;15.70;99.90;;;;;;5095340;28;20537;-73
2023/10/12 07:19:22;;;;;;;649.63;621.03;;;15.80;99.90;;;;;;5095457;28;20481;-73
2023/10/12 07:21:53;;;;;;;667.50;637.73;;;15.80;99.90;;;;;;5095340;28;20869;-73
2023/10/12 07:24:22;;;;;;;646.90;617.53;;;15.90;99.90;;;;;;5095212;28;20510;-74
2023/10/12 07:26:49;;;;;;;620.50;593.20;;;15.90;99.90;;;;;;5094973;28;20544;-73
2023/10/12 07:29:19;;;;;;;645.37;617.17;;;15.90;99.90;;;;;;5095204;28;20905;-73
2023/10/12 07:31:48;;;;;;;531.97;510.07;;;16.00;99.90;;;;;;5095209;28;20532;-73
2023/10/12 07:34:15;;;;;;;592.07;566.93;;;16.10;99.90;;;;;;5095087;28;20450;-73
2023/10/12 07:36:52;;;;;;;529.60;507.03;;;16.20;99.90;;;;;;5095122;28;20532;-73
2023/10/12 07:39:20;;;;;;;415.90;399.70;;;16.20;99.90;;;;;;5095304;28;21000;-73
2023/10/12 07:42:00;;;;;;;486.20;466.40;;;16.30;99.90;;;;;;5094943;28;20453;-73
2023/10/12 07:44:28;;;;;;;473.10;454.30;;;16.30;99.90;;;;;;5094966;28;20877;-73
2023/10/12 07:46:56;;;;;;;417.17;400.80;;;16.40;99.90;;;;;;5094838;28;20481;-73
2023/10/12 07:49:37;;;;;;;429.37;412.77;;;16.40;99.90;;;;;;5094674;28;20477;-73
2023/10/12 07:52:09;;;;;;;433.43;416.33;;;16.40;99.90;;;;;;5094991;28;20496;-73
2023/10/12 07:54:58;;;;;;;499.30;478.90;;;16.50;99.90;;;;;;5094599;28;20490;-73
2023/10/12 07:57:29;;;;;;;487.73;467.30;;;16.50;99.90;;;;;;5094412;28;20468;-73
2023/10/12 08:00:29;;;;;;;538.17;515.47;;;16.50;99.90;;;;;;5094656;28;20457;-73
2023/10/12 08:08:33;;;;;;;483.80;463.40;;;16.40;99.90;;;;;;5094400;28;20833;-73
2023/10/12 08:11:08;;;;;;;512.93;491.00;;;16.40;99.90;;;;;;5094295;28;20449;-73
2023/10/12 08:13:39;;;;;;;467.33;447.23;;;16.40;99.90;;;;;;5094181;28;20463;-73
2023/10/12 08:16:14;;;;;;;492.50;470.90;;;16.40;99.90;;;;;;5094465;28;20494;-73
2023/10/12 08:21:30;;;;;;;559.77;534.33;;;16.40;99.90;;;;;;5094265;28;20433;-73
2023/10/12 08:24:09;;;;;;;557.20;531.80;;;16.50;99.90;;;;;;5094034;28;20540;-73
2023/10/12 08:26:47;;;;;;;535.03;511.43;;;16.50;99.90;;;;;;5094039;28;20532;-73
2023/10/12 08:30:11;;;;;;;537.27;513.13;;;16.50;99.90;;;;;;5093870;28;20479;-73
2023/10/12 08:32:11;;;;;;;522.03;499.23;;;16.60;99.90;;;;;;5093890;28;20453;-73
2023/10/12 08:37:26;;;;;;;477.97;456.67;;;16.80;99.90;;;;;;5093685;28;20448;-72
2023/10/12 08:40:07;;;;;;;510.10;486.87;;;16.90;99.90;;;;;;5094212;28;20441;-72
2023/10/12 08:42:55;;;;;;;461.87;440.87;;;17.00;99.90;;;;;;5093976;28;20476;-72
2023/10/12 08:45:24;;;;;;;553.57;528.03;;;17.00;99.90;;;;;;5093730;28;20445;-73
2023/10/12 08:47:53;;;;;;;475.30;454.50;;;17.10;99.90;;;;;;5093607;28;20477;-72
2023/10/12 08:53:07;;;;;;;393.97;378.27;;;17.40;99.90;;;;;;5093474;28;20794;-72
2023/10/12 08:55:36;;;;;;;275.87;266.20;;;17.40;99.90;;;;;;5093528;28;20445;-73
2023/10/12 08:58:15;;;;;;;304.10;292.90;;;17.40;99.90;;;;;;5093510;28;20555;-73
2023/10/12 09:00:44;;;;;;;188.23;181.60;;;17.50;99.90;;;;;;5093403;28;20457;-72
2023/10/12 09:03:28;;;;;;;192.80;185.50;;;17.50;97.50;;;;;;5093220;28;20453;-72
2023/10/12 09:05:55;;;;;;;168.43;162.10;;;17.60;97.60;;;;;;5093535;28;20522;-72
2023/10/12 09:08:39;;;;;;;120.33;115.03;;;17.60;97.50;;;;;;5092541;28;20470;-72
2023/10/12 09:11:14;;;;;;;140.20;134.77;;;17.70;97.10;;;;;;5093046;28;20454;-72
2023/10/12 09:13:45;;;;;;;66.40;63.00;;;17.80;96.50;;;;;;5093351;28;20536;-73
2023/10/12 09:16:15;;;;;;;97.03;92.93;;;17.90;94.60;;;;;;5093051;28;20959;-72
2023/10/12 09:18:44;;;;;;;52.03;48.60;;;18.10;95.30;;;;;;5093102;28;20442;-73
2023/10/12 09:21:23;;;;;;;43.03;40.37;;;18.10;94.30;;;;;;5093067;28;20458;-72
2023/10/12 09:23:52;;;;;;;44.20;41.50;;;18.20;94.40;;;;;;5092831;28;20908;-72
2023/10/12 09:26:31;;;;;;;34.17;31.63;;;18.30;94.40;;;;;;5092945;28;20896;-72
2023/10/12 09:29:09;;;;;;;31.47;29.07;;;18.50;94.50;;;;;;5092863;28;20469;-73
2023/10/12 09:31:57;;;;;;;21.97;20.03;;;18.60;94.50;;;;;;5092859;28;20445;-73
2023/10/12 09:37:08;;;;;;;17.77;14.70;;;18.80;92.60;;;;;;5091462;28;20463;-73
2023/10/12 09:39:35;;;;;;;14.57;10.57;;;18.90;91.20;;;;;;5092823;28;20551;-73
2023/10/12 09:42:14;;;;;;;16.83;11.67;;;19.00;90.10;;;;;;5092660;28;20456;-73
2023/10/12 09:44:41;;;;;;;16.83;11.37;;;18.90;90.10;;;;;;5092562;28;20510;-73
2023/10/12 09:47:11;;;;;;;15.70;9.50;;;19.00;90.40;;;;;;5092676;28;20442;-73
2023/10/12 09:49:46;;;;;;;17.23;10.70;;;19.00;85.20;;;;;;5092559;28;20568;-73
2023/10/12 09:52:16;;;;;;;16.13;10.93;;;19.10;85.20;;;;;;5092656;28;20536;-73
2023/10/12 09:54:48;;;;;;;15.20;10.20;;;19.20;85.30;;;;;;5092496;28;20446;-73
2023/10/12 09:57:23;;;;;;;14.60;9.90;;;19.40;85.50;;;;;;5092824;28;20511;-73
2023/10/12 09:59:53;;;;;;;17.60;10.60;;;19.40;85.50;;;;;;5092703;28;20485;-73
2023/10/12 10:02:30;;;;;;;14.00;9.20;;;19.40;85.50;;;;;;5092480;28;20452;-73
2023/10/12 10:05:11;;;;;;;17.33;9.27;;;19.40;85.50;;;;;;5092398;28;20948;-73
2023/10/12 10:07:49;;;;;;;15.30;8.60;;;19.60;85.70;;;;;;5092467;28;20945;-73
2023/10/12 10:10:27;;;;;;;12.40;8.03;;;19.70;85.70;;;;;;5092542;28;20476;-73
2023/10/12 10:12:56;;;;;;;14.57;8.43;;;19.80;82.60;;;;;;5092408;28;20489;-73
2023/10/12 10:15:24;;;;;;;19.20;9.13;;;20.00;80.20;;;;;;5092838;28;20492;-73
2023/10/12 10:17:56;;;;;;;13.57;9.17;;;20.20;78.30;;;;;;5092219;28;20507;-73
2023/10/12 10:23:19;;;;;;;18.77;7.90;;;20.30;74.70;;;;;;5094919;28;20460;-73
2023/10/12 10:25:56;;;;;;;12.87;7.40;;;20.50;72.30;;;;;;5096400;28;20451;-73
2023/10/12 10:28:32;;;;;;;17.20;8.40;;;20.80;70.80;;;;;;5096330;28;20487;-73
2023/10/12 10:31:00;;;;;;;11.93;7.93;;;21.20;71.20;;;;;;5096380;28;20904;-73
2023/10/12 10:33:28;;;;;;;21.90;9.47;;;21.20;71.20;;;;;;5096297;28;20456;-73
2023/10/12 10:36:00;;;;;;;14.43;7.73;;;21.20;71.20;;;;;;5096716;28;20481;-74
2023/10/12 10:38:32;;;;;;;15.77;8.60;;;20.90;70.90;;;;;;5096162;28;20532;-73
2023/10/12 10:41:17;;;;;;;16.30;7.87;;;20.90;70.90;;;;;;5096349;28;20464;-73
2023/10/12 10:43:46;;;;;;;15.63;8.27;;;20.90;70.90;;;;;;5096041;28;20494;-73
2023/10/12 10:46:16;;;;;;;11.67;8.37;;;20.80;70.80;;;;;;5096267;28;20853;-73
2023/10/12 10:48:49;;;;;;;20.00;8.23;;;20.70;70.70;;;;;;5095973;28;20558;-73
2023/10/12 10:51:19;;;;;;;17.60;9.67;;;20.50;70.60;;;;;;5095735;28;20477;-72
2023/10/12 10:53:51;;;;;;;20.80;9.20;;;20.40;70.50;;;;;;5095719;28;20924;-73
2023/10/12 10:56:32;;;;;;;14.57;7.60;;;20.20;70.30;;;;;;5096032;28;20445;-73
2023/10/12 10:59:00;;;;;;;16.53;8.27;;;20.10;70.20;;;;;;5096045;28;20543;-73
2023/10/12 11:01:27;;;;;;;12.30;7.60;;;20.10;70.20;;;;;;5095709;28;20510;-73
2023/10/12 11:03:57;;;;;;;12.47;8.73;;;20.30;70.40;;;;;;5095439;28;20956;-73
2023/10/12 11:06:24;;;;;;;15.03;8.53;;;20.40;70.50;;;;;;5095791;28;20445;-73
2023/10/12 11:09:04;;;;;;;17.13;7.83;;;20.50;70.60;;;;;;5095515;28;20469;-73
2023/10/12 11:11:37;;;;;;;16.47;8.90;;;20.60;70.60;;;;;;5095612;28;20453;-73
2023/10/12 11:14:06;;;;;;;12.03;7.30;;;20.40;70.50;;;;;;5095380;28;20457;-73
2023/10/12 11:16:33;;;;;;;15.97;9.57;;;20.40;70.50;;;;;;5095397;28;20514;-73
2023/10/12 11:19:01;;;;;;;14.17;7.80;;;20.30;70.40;;;;;;5095310;28;20877;-73
2023/10/12 11:21:28;;;;;;;15.03;9.80;;;20.40;70.50;;;;;;5095204;28;20449;-72
2023/10/12 11:24:00;;;;;;;13.20;7.77;;;20.20;70.30;;;;;;5095086;28;20450;-73
2023/10/12 11:26:27;;;;;;;10.50;7.40;;;20.20;70.30;;;;;;5093734;28;20452;-73
2023/10/12 11:29:10;;;;;;;13.23;8.83;;;20.20;70.30;;;;;;5094756;28;20568;-73
2023/10/12 11:31:37;;;;;;;13.67;8.47;;;20.30;70.40;;;;;;5093651;28;20907;-73
2023/10/12 11:34:07;;;;;;;15.23;7.60;;;20.40;70.50;;;;;;5093525;28;20537;-73
2023/10/12 11:36:35;;;;;;;14.90;8.77;;;20.60;71.50;;;;;;5093621;28;20445;-73
2023/10/12 11:39:10;;;;;;;12.20;7.40;;;20.60;70.60;;;;;;5093174;28;20991;-73
2023/10/12 11:41:37;;;;;;;19.03;8.87;;;20.70;70.70;;;;;;5093520;28;20445;-73
2023/10/12 11:44:07;;;;;;;15.23;9.00;;;20.70;70.70;;;;;;5093492;28;20445;-73
2023/10/12 11:46:43;;;;;;;9.60;6.87;;;20.70;70.30;;;;;;5093866;28;20484;-73
2023/10/12 11:49:10;;;;;;;14.17;6.57;;;20.70;67.90;;;;;;5094696;28;20988;-73
2023/10/12 11:51:50;;;;;;;14.77;6.80;;;20.80;64.20;;;;;;5094552;28;20458;-73
2023/10/12 11:54:21;;;;;;;13.87;6.57;;;20.70;62.50;;;;;;5094858;28;20457;-73
2023/10/12 11:56:50;;;;;;;15.00;6.90;;;20.80;62.60;;;;;;5094706;28;20445;-73
2023/10/12 11:59:26;;;;;;;16.80;7.47;;;20.90;63.50;;;;;;5094638;28;20449;-73
2023/10/12 12:01:57;;;;;;;15.80;6.60;;;20.90;62.70;;;;;;5094373;28;20847;-73
2023/10/12 12:04:31;;;;;;;12.40;6.80;;;20.80;62.60;;;;;;5094614;28;20456;-73
2023/10/12 12:06:59;;;;;;;10.27;6.47;;;20.60;62.40;;;;;;5094444;28;20456;-73
2023/10/12 12:09:27;;;;;;;19.50;6.60;;;20.60;62.40;;;;;;5094547;28;20479;-73
2023/10/12 12:11:55;;;;;;;10.73;6.10;;;20.50;62.30;;;;;;5094402;28;20846;-73
2023/10/12 12:14:23;;;;;;;12.70;7.10;;;20.50;66.70;;;;;;5094167;28;20452;-73
2023/10/12 12:16:50;;;;;;;15.43;7.03;;;20.40;63.80;;;;;;5094107;28;20460;-73
2023/10/12 12:19:23;;;;;;;10.07;5.63;;;20.40;70.40;;;;;;5094385;28;20834;-73
2023/10/12 12:21:52;;;;;;;16.13;5.73;;;20.20;70.30;;;;;;5094262;28;20456;-73
2023/10/12 12:24:24;;;;;;;11.33;5.20;;;20.10;70.10;;;;;;5093627;28;20958;-73
2023/10/12 12:26:53;;;;;;;15.10;6.23;;;20.00;70.10;;;;;;5094022;28;20449;-73
2023/10/12 12:29:26;;;;;;;16.37;6.70;;;19.90;70.00;;;;;;5093927;28;20484;-73
2023/10/12 12:31:57;;;;;;;14.13;6.67;;;19.90;70.00;;;;;;5094159;28;20448;-73
2023/10/12 12:34:38;;;;;;;12.97;5.83;;;19.80;69.90;;;;;;5094051;28;20445;-73
2023/10/12 12:37:06;;;;;;;13.40;6.00;;;19.50;69.60;;;;;;5093971;28;20483;-73
2023/10/12 12:39:34;;;;;;;15.10;8.50;;;19.30;69.50;;;;;;5093766;28;20448;-73
2023/10/12 12:42:01;;;;;;;13.10;5.87;;;19.20;69.40;;;;;;5093529;28;20452;-73
2023/10/12 12:44:28;;;;;;;14.00;6.37;;;19.00;70.00;;;;;;5093092;28;20480;-73
2023/10/12 12:46:59;;;;;;;13.10;6.70;;;19.00;75.40;;;;;;5094021;28;20536;-73
2023/10/12 12:49:26;;;;;;;13.83;11.80;;;18.80;91.20;;;;;;5093552;28;20473;-75
2023/10/12 12:51:53;;;;;;;15.37;11.40;;;18.60;98.00;;;;;;5093503;28;20480;-75
2023/10/12 12:54:23;;;;;;;30.53;28.43;;;18.40;92.40;;;;;;5093460;28;20445;-75
2023/10/12 12:56:53;;;;;;;120.70;115.47;;;18.40;94.50;;;;;;5093434;28;20535;-75
2023/10/12 12:59:21;;;;;;;76.45;72.30;;;18.50;94.50;;;;;;5094904;28;20371;-76
2023/10/12 13:01:47;;;;;;;45.60;43.13;;;18.50;94.50;;;;;;5094664;28;20286;-75
2023/10/12 13:04:17;;;;;;;82.73;79.13;;;18.50;94.40;;;;;;5094846;28;20459;-75
2023/10/12 13:06:44;;;;;;;73.60;70.03;;;18.50;94.10;;;;;;5093057;28;20449;-75
2023/10/12 13:09:28;;;;;;;79.20;75.33;;;18.70;94.50;;;;;;5092872;28;20481;-75
2023/10/12 13:11:55;;;;;;;102.57;98.27;;;18.80;93.00;;;;;;5093123;28;20532;-76
2023/10/12 13:14:23;;;;;;;76.47;72.73;;;18.90;91.20;;;;;;5092713;28;20456;-75
2023/10/12 13:16:50;;;;;;;62.93;59.70;;;19.00;92.50;;;;;;5092732;28;20921;-75
2023/10/12 13:19:18;;;;;;;55.53;52.33;;;19.00;91.30;;;;;;5092839;28;20457;-75
2023/10/12 13:21:45;;;;;;;21.53;19.80;;;19.20;92.70;;;;;;5092561;28;20476;-74
2023/10/12 13:24:13;;;;;;;15.50;13.90;;;19.10;89.70;;;;;;5092652;28;20467;-74
2023/10/12 13:26:43;;;;;;;18.00;10.57;;;19.10;85.50;;;;;;5092544;28;20449;-73